createdAt,value
2018-01-08T00:00:42.783Z,6.02
2018-01-08T00:02:36.691Z,6.05
2018-01-08T00:03:37.214Z,6.07
2018-01-08T00:05:31.084Z,6.05
2018-01-08T00:06:31.088Z,5.98
2018-01-08T00:08:26.544Z,5.99
2018-01-08T00:09:26.038Z,6.03
2018-01-08T00:11:19.987Z,6.02
2018-01-08T00:12:20.473Z,6.06
2018-01-08T00:14:16.419Z,6.02
2018-01-08T00:15:15.866Z,6.03
2018-01-08T00:17:10.829Z,6.07
2018-01-08T00:18:10.307Z,6.02
2018-01-08T00:20:05.751Z,6.06
2018-01-08T00:21:04.747Z,6.06
2018-01-08T00:23:00.694Z,6.06
2018-01-08T00:24:01.207Z,6.07
2018-01-08T00:25:57.612Z,6.03
2018-01-08T00:26:56.599Z,6.06
2018-01-08T00:28:52.537Z,6.07
2018-01-08T00:29:53.060Z,6.02
2018-01-08T00:31:47.506Z,6.03
2018-01-08T00:32:46.977Z,5.98
2018-01-08T00:34:43.855Z,6.03
2018-01-08T00:35:42.892Z,6.06
2018-01-08T00:37:38.361Z,5.99
2018-01-08T00:38:37.393Z,6.06
2018-01-08T00:40:30.840Z,6.05
2018-01-08T00:41:31.357Z,6.00
2018-01-08T00:43:28.787Z,6.02
2018-01-08T00:44:28.751Z,5.98
2018-01-08T00:46:23.156Z,5.99
2018-01-08T00:47:23.182Z,5.96
2018-01-08T00:49:17.639Z,6.03
2018-01-08T00:50:18.127Z,5.99
2018-01-08T00:52:12.547Z,5.98
2018-01-08T00:53:12.034Z,5.92
2018-01-08T00:55:06.996Z,5.87
2018-01-08T00:56:06.996Z,5.89
2018-01-08T00:58:02.891Z,5.95
2018-01-08T01:00:58.841Z,5.91
2018-01-08T01:01:58.299Z,5.91
2018-01-08T01:03:53.258Z,5.92
2018-01-08T01:04:53.253Z,5.99
2018-01-08T01:06:47.189Z,5.88
2018-01-08T01:07:47.171Z,5.92
2018-01-08T01:09:41.591Z,5.81
2018-01-08T01:10:41.585Z,5.88
2018-01-08T01:12:36.015Z,5.80
2018-01-08T01:13:36.020Z,5.81
2018-01-08T01:15:30.476Z,5.85
2018-01-08T01:16:30.966Z,5.84
2018-01-08T01:18:27.806Z,5.92
2018-01-08T01:19:26.377Z,5.98
2018-01-08T01:21:20.804Z,5.91
2018-01-08T01:22:20.796Z,5.84
2018-01-08T01:24:15.226Z,5.81
2018-01-08T01:25:15.217Z,5.87
2018-01-08T01:27:13.185Z,5.87
2018-01-08T01:28:13.220Z,5.84
2018-01-08T01:30:07.625Z,5.82
2018-01-08T01:31:07.587Z,5.82
2018-01-08T01:33:02.016Z,5.95
2018-01-08T01:34:02.028Z,5.95
2018-01-08T01:35:56.463Z,5.81
2018-01-08T01:36:56.461Z,5.80
2018-01-08T01:38:52.413Z,5.81
2018-01-08T01:39:52.399Z,5.81
2018-01-08T01:41:48.320Z,5.80
2018-01-08T01:42:48.306Z,5.80
2018-01-08T01:44:44.298Z,5.81
2018-01-08T01:45:44.263Z,5.81
2018-01-08T01:47:41.688Z,5.80
2018-01-08T01:48:40.177Z,5.84
2018-01-08T01:50:37.126Z,5.73
2018-01-08T01:51:36.168Z,5.75
2018-01-08T01:53:34.125Z,5.78
2018-01-08T01:54:32.099Z,5.81
2018-01-08T01:56:28.056Z,5.81
2018-01-08T01:57:28.036Z,5.85
2018-01-08T01:59:24.478Z,5.88
2018-01-08T02:00:23.961Z,5.81
2018-01-08T02:02:22.910Z,5.75
2018-01-08T02:03:21.988Z,5.77
2018-01-08T02:05:16.422Z,5.89
2018-01-08T02:06:16.404Z,5.84
2018-01-08T02:08:11.459Z,5.88
2018-01-08T02:09:10.822Z,5.85
2018-01-08T02:11:05.271Z,5.87
2018-01-08T02:12:05.238Z,5.88
2018-01-08T02:14:01.684Z,5.92
2018-01-08T02:15:01.165Z,5.88
2018-01-08T02:16:56.614Z,5.89
2018-01-08T02:17:56.125Z,5.89
2018-01-08T02:19:52.044Z,5.87
2018-01-08T02:20:51.533Z,5.91
2018-01-08T02:22:45.971Z,5.99
2018-01-08T02:23:46.487Z,6.00
2018-01-08T02:25:40.396Z,5.99
2018-01-08T02:26:40.404Z,5.99
2018-01-08T02:28:35.324Z,6.09
2018-01-08T02:29:34.816Z,6.05
2018-01-08T02:31:30.761Z,6.05
2018-01-08T02:32:31.254Z,6.09
2018-01-08T02:34:25.146Z,6.09
2018-01-08T02:35:25.156Z,5.98
2018-01-08T02:37:21.080Z,6.15
2018-01-08T02:38:21.076Z,6.13
2018-01-08T02:40:15.484Z,6.05
2018-01-08T02:41:15.513Z,6.17
2018-01-08T02:43:09.948Z,6.21
2018-01-08T02:44:09.966Z,6.17
2018-01-08T02:46:04.895Z,6.20
2018-01-08T02:47:04.372Z,6.17
2018-01-08T02:48:58.809Z,6.15
2018-01-08T02:50:00.325Z,6.29
2018-01-08T02:51:54.751Z,6.24
2018-01-08T02:52:54.730Z,6.24
2018-01-08T02:54:50.175Z,6.34
2018-01-08T02:55:49.121Z,6.24
2018-01-08T02:57:43.584Z,6.26
2018-01-08T02:58:43.563Z,6.31
2018-01-08T03:00:40.506Z,6.34
2018-01-08T03:01:39.478Z,6.33
2018-01-08T03:03:33.947Z,6.26
2018-01-08T03:04:33.894Z,6.28
2018-01-08T03:06:29.860Z,6.26
2018-01-08T03:07:29.843Z,6.25
2018-01-08T03:09:25.282Z,6.25
2018-01-08T03:10:24.801Z,6.25
2018-01-08T03:12:18.749Z,6.21
2018-01-08T03:13:18.726Z,6.26
2018-01-08T03:15:14.622Z,6.26
2018-01-08T03:16:14.618Z,6.29
2018-01-08T03:18:09.566Z,6.28
2018-01-08T03:19:09.060Z,6.29
2018-01-08T03:21:03.503Z,6.29
2018-01-08T03:22:03.505Z,6.20
2018-01-08T03:23:57.945Z,6.29
2018-01-08T03:24:57.939Z,6.33
2018-01-08T03:26:52.371Z,6.33
2018-01-08T03:27:52.362Z,6.33
2018-01-08T03:29:48.295Z,6.31
2018-01-08T03:30:48.822Z,6.20
2018-01-08T03:32:42.727Z,6.20
2018-01-08T03:33:43.248Z,6.24
2018-01-08T03:35:37.125Z,6.26
2018-01-08T03:36:37.116Z,6.31
2018-01-08T03:38:31.593Z,6.31
2018-01-08T03:39:31.553Z,6.21
2018-01-08T03:41:27.522Z,6.25
2018-01-08T03:42:28.516Z,6.18
2018-01-08T03:44:22.453Z,6.28
2018-01-08T03:45:21.993Z,6.24
2018-01-08T03:47:16.392Z,6.17
2018-01-08T03:48:16.897Z,6.07
2018-01-08T03:50:11.300Z,6.09
2018-01-08T03:51:10.782Z,6.17
2018-01-08T03:53:05.237Z,6.14
2018-01-08T03:54:05.207Z,6.20
2018-01-08T03:56:00.158Z,6.17
2018-01-08T03:56:59.676Z,6.26
2018-01-08T03:58:54.103Z,6.28
2018-01-08T03:59:54.098Z,6.21
2018-01-08T04:01:49.054Z,6.26
2018-01-08T04:02:49.036Z,6.25
2018-01-08T04:04:41.936Z,6.29
2018-01-08T04:05:41.908Z,6.29
2018-01-08T04:07:37.895Z,6.25
2018-01-08T04:08:38.368Z,6.20
2018-01-08T04:10:33.805Z,6.17
2018-01-08T04:11:33.769Z,6.13
2018-01-08T04:13:28.729Z,6.14
2018-01-08T04:14:28.202Z,6.10
2018-01-08T04:16:25.146Z,6.14
2018-01-08T04:17:24.120Z,6.20
2018-01-08T04:19:20.078Z,6.18
2018-01-08T04:20:20.056Z,6.17
2018-01-08T04:22:17.007Z,6.24
2018-01-08T04:23:15.993Z,6.28
2018-01-08T04:25:10.406Z,6.26
2018-01-08T04:26:10.394Z,6.24
2018-01-08T04:28:06.849Z,6.33
2018-01-08T04:29:07.835Z,6.31
2018-01-08T04:31:02.281Z,6.25
2018-01-08T04:32:02.258Z,6.31
2018-01-08T04:33:57.208Z,6.26
2018-01-08T04:34:56.680Z,6.17
2018-01-08T04:37:35.121Z,6.18
2018-01-08T04:38:17.131Z,6.24
2018-01-08T04:40:13.100Z,6.20
2018-01-08T04:41:13.062Z,6.15
2018-01-08T04:43:07.496Z,6.26
2018-01-08T04:44:08.004Z,6.17
2018-01-08T04:46:02.924Z,6.24
2018-01-08T04:47:01.912Z,6.21
2018-01-08T04:48:56.368Z,6.31
2018-01-08T04:49:56.347Z,6.29
2018-01-08T04:51:51.322Z,6.26
2018-01-08T04:52:50.794Z,6.36
2018-01-08T04:54:45.260Z,6.26
2018-01-08T04:55:45.200Z,6.28
2018-01-08T04:57:38.634Z,6.33
2018-01-08T04:58:38.648Z,6.39
2018-01-08T05:00:33.574Z,6.46
2018-01-08T05:01:33.063Z,6.44
2018-01-08T05:03:27.513Z,6.36
2018-01-08T05:04:28.000Z,6.37
2018-01-08T05:06:22.436Z,6.39
2018-01-08T05:07:21.914Z,6.43
2018-01-08T05:09:17.872Z,6.46
2018-01-08T05:10:17.864Z,6.46
2018-01-08T05:12:12.309Z,6.37
2018-01-08T05:13:12.795Z,6.34
2018-01-08T05:15:06.228Z,6.28
2018-01-08T05:16:05.677Z,6.31
2018-01-08T05:18:00.160Z,6.34
2018-01-08T05:19:00.127Z,6.29
2018-01-08T05:20:53.561Z,6.36
2018-01-08T05:21:54.075Z,6.31
2018-01-08T05:23:48.506Z,6.34
2018-01-08T05:24:47.982Z,6.28
2018-01-08T05:26:42.440Z,6.33
2018-01-08T05:27:42.936Z,6.28
2018-01-08T05:29:37.360Z,6.28
2018-01-08T05:30:36.828Z,6.31
2018-01-08T05:32:32.787Z,6.31
2018-01-08T05:33:32.777Z,6.26
2018-01-08T05:35:27.167Z,6.24
2018-01-08T05:36:27.167Z,6.18
2018-01-08T05:38:21.632Z,6.14
2018-01-08T05:39:21.600Z,6.14
2018-01-08T05:41:17.553Z,6.26
2018-01-08T05:42:17.534Z,6.24
2018-01-08T05:44:11.968Z,6.28
2018-01-08T05:45:11.951Z,6.18
2018-01-08T05:47:06.898Z,6.29
2018-01-08T05:48:06.395Z,6.25
2018-01-08T05:50:01.362Z,6.20
2018-01-08T05:51:00.833Z,6.29
2018-01-08T05:52:55.238Z,6.28
2018-01-08T05:53:55.769Z,6.36
2018-01-08T05:55:49.706Z,6.34
2018-01-08T05:56:48.666Z,6.29
2018-01-08T05:58:45.113Z,6.29
2018-01-08T05:59:44.604Z,6.29
2018-01-08T06:01:40.572Z,6.28
2018-01-08T06:02:40.522Z,6.26
2018-01-08T06:04:36.492Z,6.28
2018-01-08T06:05:37.976Z,6.21
2018-01-08T06:07:29.906Z,6.28
2018-01-08T06:08:29.902Z,6.36
2018-01-08T06:10:23.344Z,6.28
2018-01-08T06:11:23.347Z,6.29
2018-01-08T06:13:19.302Z,6.25
2018-01-08T06:14:19.284Z,6.26
2018-01-08T06:16:15.186Z,6.24
2018-01-08T06:17:15.193Z,6.28
2018-01-08T06:19:10.152Z,6.21
2018-01-08T06:20:11.155Z,6.25
2018-01-08T06:22:05.570Z,6.34
2018-01-08T06:23:06.083Z,6.24
2018-01-08T06:25:00.030Z,6.25
2018-01-08T06:25:59.946Z,6.25
2018-01-08T06:27:54.888Z,6.26
2018-01-08T06:28:54.376Z,6.26
2018-01-08T06:30:47.802Z,6.21
2018-01-08T06:31:49.321Z,6.33
2018-01-08T06:33:43.760Z,6.24
2018-01-08T06:34:43.727Z,6.31
2018-01-08T06:36:40.169Z,6.34
2018-01-08T06:37:39.657Z,6.36
2018-01-08T06:39:36.598Z,6.47
2018-01-08T06:40:35.595Z,6.36
2018-01-08T06:42:31.046Z,6.40
2018-01-08T06:43:30.016Z,6.37
2018-01-08T06:45:24.979Z,6.31
2018-01-08T06:46:24.422Z,6.25
2018-01-08T06:48:18.850Z,6.37
2018-01-08T06:49:18.827Z,6.37
2018-01-08T06:51:15.286Z,6.36
2018-01-08T06:52:14.758Z,6.40
2018-01-08T06:54:09.181Z,6.36
2018-01-08T06:55:09.185Z,6.40
2018-01-08T06:57:03.624Z,6.33
2018-01-08T06:58:03.625Z,6.34
2018-01-08T06:59:59.060Z,6.28
2018-01-08T07:00:58.046Z,6.25
2018-01-08T07:02:54.008Z,6.33
2018-01-08T07:03:53.981Z,6.24
2018-01-08T07:05:48.973Z,6.34
2018-01-08T07:06:48.446Z,6.24
2018-01-08T07:08:43.399Z,6.21
2018-01-08T07:09:43.378Z,6.26
2018-01-08T07:11:36.345Z,6.33
2018-01-08T07:12:36.287Z,6.28
2018-01-08T07:14:31.234Z,6.36
2018-01-08T07:15:30.708Z,6.34
2018-01-08T07:17:27.660Z,6.34
2018-01-08T07:18:26.624Z,6.36
2018-01-08T07:20:21.585Z,6.29
2018-01-08T07:21:21.071Z,6.29
2018-01-08T07:23:15.475Z,6.33
2018-01-08T07:24:15.476Z,6.31
2018-01-08T07:26:08.959Z,6.18
2018-01-08T07:27:09.433Z,6.28
2018-01-08T07:29:04.881Z,6.28
2018-01-08T07:30:05.877Z,6.37
2018-01-08T07:32:04.329Z,6.28
2018-01-08T07:33:02.818Z,6.34
2018-01-08T07:34:58.734Z,6.40
2018-01-08T07:35:59.271Z,6.31
2018-01-08T07:37:53.176Z,6.43
2018-01-08T07:38:53.166Z,6.42
2018-01-08T07:40:50.108Z,6.28
2018-01-08T07:41:49.106Z,6.31
2018-01-08T07:43:45.556Z,6.26
2018-01-08T07:44:45.026Z,6.26
2018-01-08T07:46:38.488Z,6.25
2018-01-08T07:47:38.458Z,6.18
2018-01-08T07:49:33.423Z,6.06
2018-01-08T07:50:32.890Z,6.14
2018-01-08T07:52:27.384Z,6.17
2018-01-08T07:53:27.326Z,6.13
2018-01-08T07:55:23.246Z,6.15
2018-01-08T07:56:23.223Z,6.13
2018-01-08T07:58:18.184Z,6.14
2018-01-08T07:59:17.652Z,6.10
2018-01-08T08:01:14.104Z,6.00
2018-01-08T08:02:13.588Z,6.02
2018-01-08T08:04:07.960Z,6.06
2018-01-08T08:05:07.022Z,5.99
2018-01-08T08:07:00.434Z,6.03
2018-01-08T08:08:00.456Z,6.02
2018-01-08T08:09:56.317Z,6.13
2018-01-08T08:10:54.865Z,5.98
2018-01-08T08:12:48.288Z,5.99
2018-01-08T08:13:48.288Z,6.07
2018-01-08T08:15:45.169Z,6.00
2018-01-08T08:16:44.217Z,6.10
2018-01-08T08:18:38.656Z,6.09
2018-01-08T08:19:38.664Z,5.99
2018-01-08T08:21:33.105Z,6.00
2018-01-08T08:22:33.084Z,5.98
2018-01-08T08:24:29.049Z,6.07
2018-01-08T08:25:29.026Z,6.03
2018-01-08T08:27:23.446Z,6.09
2018-01-08T08:28:23.442Z,6.00
2018-01-08T08:30:19.419Z,6.06
2018-01-08T08:31:19.378Z,6.00
2018-01-08T08:33:15.366Z,6.06
2018-01-08T08:34:15.306Z,6.07
2018-01-08T08:36:09.739Z,6.07
2018-01-08T08:37:09.735Z,5.99
2018-01-08T08:39:05.700Z,6.05
2018-01-08T08:40:06.181Z,6.05
2018-01-08T08:42:01.594Z,6.07
2018-01-08T08:43:01.590Z,6.10
2018-01-08T08:44:57.509Z,6.13
2018-01-08T08:47:12.464Z,6.13
2018-01-08T08:48:13.955Z,6.13
2018-01-08T08:50:07.977Z,6.17
2018-01-08T08:51:08.448Z,6.13
2018-01-08T08:53:02.393Z,6.07
2018-01-08T08:54:02.383Z,6.00
2018-01-08T08:55:56.826Z,6.09
2018-01-08T08:56:56.784Z,6.09
2018-01-08T08:58:52.714Z,6.09
2018-01-08T08:59:52.706Z,6.06
2018-01-08T09:01:48.684Z,6.05
2018-01-08T09:02:48.624Z,6.14
2018-01-08T09:04:45.575Z,6.15
2018-01-08T09:05:45.074Z,6.20
2018-01-08T09:07:39.991Z,6.17
2018-01-08T09:08:38.975Z,6.20
2018-01-08T09:10:35.216Z,6.18
2018-01-08T09:11:34.898Z,6.24
2018-01-08T09:13:31.344Z,6.26
2018-01-08T09:14:30.892Z,6.14
2018-01-08T09:16:25.258Z,6.07
2018-01-08T09:17:25.242Z,6.13
2018-01-08T09:19:21.194Z,6.17
2018-01-08T09:20:21.203Z,6.18
2018-01-08T09:22:19.178Z,6.07
2018-01-08T09:23:19.125Z,6.10
2018-01-08T09:25:15.041Z,6.06
2018-01-08T09:26:15.056Z,6.13
2018-01-08T09:28:11.494Z,6.02
2018-01-08T09:29:11.488Z,6.02
2018-01-08T09:31:08.955Z,6.09
2018-01-08T09:32:08.920Z,6.15
2018-01-08T09:34:04.856Z,6.17
2018-01-08T09:35:05.374Z,6.15
2018-01-08T09:37:01.312Z,6.18
2018-01-08T09:38:00.777Z,6.17
2018-01-08T09:39:56.741Z,6.29
2018-01-08T09:40:57.230Z,6.28
2018-01-08T09:42:53.157Z,6.39
2018-01-08T09:43:52.618Z,6.39
2018-01-08T09:45:48.583Z,6.40
2018-01-08T09:46:48.551Z,6.37
2018-01-08T09:48:47.010Z,6.20
2018-01-08T09:49:46.609Z,6.25
2018-01-08T09:51:42.526Z,6.24
2018-01-08T09:52:42.521Z,6.25
2018-01-08T09:54:39.463Z,6.26
2018-01-08T09:55:38.458Z,6.39
2018-01-08T09:57:34.919Z,6.43
2018-01-08T09:58:34.401Z,6.44
2018-01-08T10:00:28.848Z,6.49
2018-01-08T10:01:29.346Z,6.51
2018-01-08T10:03:25.288Z,6.51
2018-01-08T10:04:24.747Z,6.54
2018-01-08T10:06:20.680Z,6.47
2018-01-08T10:07:20.698Z,6.37
2018-01-08T10:09:16.659Z,6.42
2018-01-08T10:10:17.149Z,6.49
2018-01-08T10:12:12.584Z,6.52
2018-01-08T10:13:12.573Z,6.51
2018-01-08T10:15:09.010Z,6.46
2018-01-08T10:16:08.461Z,6.44
2018-01-08T10:18:04.408Z,6.51
2018-01-08T10:19:04.387Z,6.54
2018-01-08T10:21:00.349Z,6.54
2018-01-08T10:22:00.316Z,6.55
2018-01-08T10:23:56.266Z,6.54
2018-01-08T10:24:56.260Z,6.67
2018-01-08T10:26:50.207Z,6.73
2018-01-08T10:27:49.678Z,6.73
2018-01-08T10:29:45.635Z,6.60
2018-01-08T10:30:45.634Z,6.64
2018-01-08T10:32:42.487Z,6.67
2018-01-08T10:33:41.538Z,6.67
2018-01-08T10:35:37.507Z,6.60
2018-01-08T10:36:37.488Z,6.64
2018-01-08T10:38:34.418Z,6.60
2018-01-08T10:39:33.404Z,6.61
2018-01-08T10:41:30.379Z,6.64
2018-01-08T10:42:29.351Z,6.72
2018-01-08T10:44:25.287Z,6.70
2018-01-08T10:45:25.800Z,6.72
2018-01-08T10:47:21.240Z,6.70
2018-01-08T10:48:21.217Z,6.70
2018-01-08T10:50:17.671Z,6.70
2018-01-08T10:51:17.158Z,6.72
2018-01-08T10:53:13.123Z,6.79
2018-01-08T10:54:13.084Z,6.85
2018-01-08T10:56:06.532Z,6.83
2018-01-08T10:57:07.051Z,6.83
2018-01-08T10:59:02.468Z,6.90
2018-01-08T11:00:02.439Z,6.82
2018-01-08T11:01:58.411Z,6.88
2018-01-08T11:02:58.410Z,6.86
2018-01-08T11:04:54.847Z,6.83
2018-01-08T11:05:54.841Z,6.90
2018-01-08T11:07:51.745Z,6.86
2018-01-08T11:08:51.086Z,6.98
2018-01-08T11:10:47.046Z,6.91
2018-01-08T11:11:47.025Z,6.95
2018-01-08T11:13:42.983Z,7.11
2018-01-08T11:14:42.964Z,7.12
2018-01-08T11:16:40.982Z,7.12
2018-01-08T11:17:40.984Z,7.08
2018-01-08T11:19:39.485Z,7.19
2018-01-08T11:20:38.929Z,7.27
2018-01-08T11:22:34.864Z,7.30
2018-01-08T11:23:34.863Z,7.26
2018-01-08T11:25:31.319Z,7.29
2018-01-08T11:26:30.780Z,7.40
2018-01-08T11:28:26.735Z,7.30
2018-01-08T11:29:26.695Z,7.37
2018-01-08T11:31:23.582Z,7.48
2018-01-08T11:32:23.150Z,7.55
2018-01-08T11:34:18.595Z,7.51
2018-01-08T11:35:18.567Z,7.63
2018-01-08T11:37:14.559Z,7.73
2018-01-08T11:38:14.574Z,7.70
2018-01-08T11:40:11.004Z,7.82
2018-01-08T11:41:10.499Z,7.83
2018-01-08T11:43:06.469Z,8.01
2018-01-08T11:44:06.461Z,7.98
2018-01-08T11:46:02.414Z,8.06
2018-01-08T11:47:02.388Z,8.16
2018-01-08T11:48:58.386Z,8.17
2018-01-08T11:49:59.343Z,8.10
2018-01-08T11:51:54.290Z,8.22
2018-01-08T11:52:54.289Z,8.19
2018-01-08T11:54:52.173Z,8.34
2018-01-08T11:55:52.191Z,8.31
2018-01-08T11:57:48.157Z,8.39
2018-01-08T11:58:48.123Z,8.47
2018-01-08T12:00:44.091Z,8.43
2018-01-08T12:01:44.069Z,8.35
2018-01-08T12:03:40.014Z,8.40
2018-01-08T12:04:40.010Z,8.26
2018-01-08T12:06:36.454Z,8.24
2018-01-08T12:07:35.945Z,8.25
2018-01-08T12:09:32.909Z,8.17
2018-01-08T12:10:31.871Z,8.22
2018-01-08T12:12:28.831Z,8.31
2018-01-08T12:13:27.804Z,8.31
2018-01-08T12:15:23.775Z,8.32
2018-01-08T12:16:24.264Z,8.36
2018-01-08T12:18:19.693Z,8.40
2018-01-08T12:19:19.683Z,8.31
2018-01-08T12:21:16.121Z,8.31
2018-01-08T12:22:15.599Z,8.17
2018-01-08T12:24:11.590Z,8.14
2018-01-08T12:25:11.535Z,8.14
2018-01-08T12:27:07.496Z,7.92
2018-01-08T12:28:07.463Z,7.88
2018-01-08T12:30:03.412Z,7.83
2018-01-08T12:31:03.404Z,7.89
2018-01-08T12:32:59.350Z,7.82
2018-01-08T12:33:59.467Z,7.82
2018-01-08T12:35:55.305Z,7.73
2018-01-08T12:36:54.639Z,7.82
2018-01-08T12:38:49.593Z,7.75
2018-01-08T12:39:49.076Z,7.68
2018-01-08T12:41:45.005Z,7.80
2018-01-08T12:42:46.221Z,7.67
2018-01-08T12:44:39.495Z,7.70
2018-01-08T12:45:39.415Z,7.83
2018-01-08T12:47:36.385Z,7.89
2018-01-08T12:48:35.376Z,7.80
2018-01-08T12:50:31.312Z,7.85
2018-01-08T12:51:31.303Z,7.93
2018-01-08T12:53:25.720Z,7.91
2018-01-08T12:54:26.257Z,7.89
2018-01-08T12:56:23.682Z,8.01
2018-01-08T12:57:22.222Z,8.04
2018-01-08T12:59:19.622Z,7.96
2018-01-08T13:00:19.595Z,7.83
2018-01-08T13:02:16.044Z,7.89
2018-01-08T13:03:15.525Z,7.95
2018-01-08T13:05:12.411Z,8.06
2018-01-08T13:06:12.411Z,7.93
2018-01-08T13:08:05.856Z,8.01
2018-01-08T13:09:07.372Z,8.09
2018-01-08T13:11:00.296Z,8.04
2018-01-08T13:12:00.285Z,7.93
2018-01-08T13:13:56.250Z,7.92
2018-01-08T13:14:56.228Z,7.96
2018-01-08T13:16:50.683Z,7.96
2018-01-08T13:17:50.656Z,7.96
2018-01-08T13:19:47.110Z,7.91
2018-01-08T13:20:46.590Z,7.99
2018-01-08T13:22:42.567Z,8.10
2018-01-08T13:23:43.484Z,8.17
2018-01-08T13:25:38.420Z,8.24
2018-01-08T13:26:38.975Z,8.28
2018-01-08T13:28:36.388Z,8.32
2018-01-08T13:29:36.351Z,8.39
2018-01-08T13:31:32.345Z,8.35
2018-01-08T13:32:32.299Z,8.40
2018-01-08T13:34:28.266Z,8.28
2018-01-08T13:35:28.753Z,8.40
2018-01-08T13:37:25.179Z,8.32
2018-01-08T13:38:24.168Z,8.36
2018-01-08T13:40:22.223Z,8.47
2018-01-08T13:41:23.127Z,8.50
2018-01-08T13:43:21.092Z,8.43
2018-01-08T13:44:20.170Z,8.46
2018-01-08T13:46:19.127Z,8.34
2018-01-08T13:47:18.207Z,8.34
2018-01-08T13:49:14.685Z,8.26
2018-01-08T13:50:14.174Z,8.40
2018-01-08T13:52:10.642Z,8.39
2018-01-08T13:53:10.134Z,8.32
2018-01-08T13:55:07.050Z,8.39
2018-01-08T13:56:06.560Z,8.43
2018-01-08T13:58:01.982Z,8.35
2018-01-08T13:59:02.004Z,8.34
2018-01-08T14:00:57.955Z,8.34
2018-01-08T14:01:57.931Z,8.34
2018-01-08T14:03:54.431Z,8.28
2018-01-08T14:04:54.387Z,8.28
2018-01-08T14:06:49.825Z,8.26
2018-01-08T14:07:50.336Z,8.35
2018-01-08T14:09:48.278Z,8.40
2018-01-08T14:10:47.884Z,8.32
2018-01-08T14:12:43.842Z,8.29
2018-01-08T14:13:45.320Z,8.28
2018-01-08T14:15:39.682Z,8.26
2018-01-08T14:16:39.706Z,8.29
2018-01-08T14:18:36.162Z,8.25
2018-01-08T14:19:35.638Z,8.28
2018-01-08T14:21:32.106Z,8.26
2018-01-08T14:22:31.560Z,8.32
2018-01-08T14:24:27.524Z,8.31
2018-01-08T14:25:27.495Z,8.24
2018-01-08T14:27:25.613Z,8.21
2018-01-08T14:28:25.531Z,8.16
2018-01-08T14:30:21.498Z,8.17
2018-01-08T14:31:21.497Z,8.17
2018-01-08T14:33:18.422Z,8.17
2018-01-08T14:34:17.920Z,8.07
2018-01-08T14:36:13.374Z,8.11
2018-01-08T14:37:13.363Z,8.11
2018-01-08T14:39:09.826Z,8.10
2018-01-08T14:40:09.296Z,8.06
2018-01-08T14:42:05.208Z,8.09
2018-01-08T14:43:05.228Z,8.06
2018-01-08T14:45:01.691Z,8.13
2018-01-08T14:46:01.672Z,8.10
2018-01-08T14:47:58.070Z,8.03
2018-01-08T14:48:57.061Z,7.95
2018-01-08T14:50:54.025Z,7.98
2018-01-08T14:51:53.022Z,7.92
2018-01-08T14:53:47.985Z,7.92
2018-01-08T14:54:47.975Z,7.86
2018-01-08T14:56:41.915Z,7.85
2018-01-08T14:57:40.909Z,7.85
2018-01-08T14:59:36.902Z,7.80
2018-01-08T15:00:36.853Z,7.88
2018-01-08T15:02:31.030Z,7.82
2018-01-08T15:03:31.859Z,7.82
2018-01-08T15:05:25.448Z,7.83
2018-01-08T15:06:25.438Z,7.82
2018-01-08T15:08:21.417Z,7.85
2018-01-08T15:09:22.389Z,7.71
2018-01-08T15:11:15.886Z,7.73
2018-01-08T15:12:15.857Z,7.70
2018-01-08T15:14:10.307Z,7.78
2018-01-08T15:15:10.327Z,7.70
2018-01-08T15:17:07.756Z,7.78
2018-01-08T15:18:06.781Z,7.78
2018-01-08T15:20:01.740Z,7.75
2018-01-08T15:21:01.720Z,7.74
2018-01-08T15:22:57.200Z,7.63
2018-01-08T15:23:57.196Z,7.58
2018-01-08T15:25:53.571Z,7.63
2018-01-08T15:26:53.159Z,7.63
2018-01-08T15:28:49.606Z,7.58
2018-01-08T15:29:48.579Z,7.68
2018-01-08T15:31:47.057Z,7.56
2018-01-08T15:32:46.618Z,7.56
2018-01-08T15:34:45.111Z,7.49
2018-01-08T15:35:45.085Z,7.55
2018-01-08T15:37:40.973Z,7.54
2018-01-08T15:38:40.995Z,7.51
2018-01-08T15:40:36.404Z,7.48
2018-01-08T15:41:36.446Z,7.47
2018-01-08T15:43:32.371Z,7.55
2018-01-08T15:44:32.366Z,7.51
2018-01-08T15:46:28.348Z,7.51
2018-01-08T15:47:28.801Z,7.52
2018-01-08T15:49:24.235Z,7.45
2018-01-08T15:50:24.256Z,7.40
2018-01-08T15:52:21.724Z,7.45
2018-01-08T15:53:22.197Z,7.39
2018-01-08T15:55:20.415Z,7.31
2018-01-08T15:56:20.393Z,7.33
2018-01-08T15:58:18.005Z,7.26
2018-01-08T15:59:17.437Z,7.22
2018-01-08T16:01:16.386Z,7.26
2018-01-08T16:02:15.406Z,7.26
2018-01-08T16:04:13.365Z,7.30
2018-01-08T16:05:13.823Z,7.22
2018-01-08T16:07:14.757Z,7.19
2018-01-08T16:08:13.758Z,7.22
2018-01-08T16:10:13.707Z,7.30
2018-01-08T16:11:11.709Z,7.23
2018-01-08T16:13:12.165Z,7.22
2018-01-08T16:14:12.139Z,7.27
2018-01-08T16:16:11.087Z,7.21
2018-01-08T16:17:10.164Z,7.22
2018-01-08T16:19:08.152Z,7.21
2018-01-08T16:20:09.613Z,7.26
2018-01-08T16:22:06.550Z,7.36
2018-01-08T16:23:06.558Z,7.22
2018-01-08T16:25:04.988Z,7.29
2018-01-08T16:26:04.066Z,7.26
2018-01-08T16:28:02.472Z,7.27
2018-01-08T16:29:01.949Z,7.29
2018-01-08T16:31:00.407Z,7.23
2018-01-08T16:32:00.004Z,7.18
2018-01-08T16:33:58.950Z,7.18
2018-01-08T16:34:58.078Z,7.15
2018-01-08T16:36:58.508Z,7.11
2018-01-08T16:37:58.500Z,7.12
2018-01-08T16:39:56.985Z,7.16
2018-01-08T16:40:56.557Z,7.13
2018-01-08T16:42:53.005Z,7.18
2018-01-08T16:43:52.499Z,7.12
2018-01-08T16:45:50.446Z,7.13
2018-01-08T16:46:50.917Z,7.13
2018-01-08T16:48:49.888Z,7.08
2018-01-08T16:49:48.479Z,7.12
2018-01-08T16:51:46.937Z,7.09
2018-01-08T16:52:46.944Z,7.12
2018-01-08T16:54:44.876Z,7.08
2018-01-08T16:55:45.353Z,7.04
2018-01-08T16:57:44.380Z,7.15
2018-01-08T16:58:42.528Z,7.00
2018-01-08T17:00:41.411Z,7.05
2018-01-08T17:01:40.487Z,7.03
2018-01-08T17:03:38.395Z,6.95
2018-01-08T17:04:38.936Z,7.00
2018-01-08T17:06:36.478Z,6.93
2018-01-08T17:07:36.431Z,6.93
2018-01-08T17:09:37.393Z,6.95
2018-01-08T17:10:36.889Z,7.08
2018-01-08T17:12:34.886Z,6.95
2018-01-08T17:13:34.915Z,7.01
2018-01-08T17:15:32.356Z,6.93
2018-01-08T17:16:30.796Z,6.83
2018-01-08T17:18:28.729Z,6.90
2018-01-08T17:19:28.737Z,6.79
2018-01-08T17:21:26.781Z,6.82
2018-01-08T17:22:26.776Z,6.79
2018-01-08T17:24:24.754Z,6.79
2018-01-08T17:25:24.696Z,6.78
2018-01-08T17:27:22.759Z,6.78
2018-01-08T17:28:22.764Z,6.68
2018-01-08T17:30:22.698Z,6.67
2018-01-08T17:31:21.705Z,6.73
2018-01-08T17:33:16.737Z,6.70
2018-01-08T17:34:16.746Z,6.73
2018-01-08T17:36:15.210Z,6.75
2018-01-08T17:37:14.792Z,6.76
2018-01-08T17:39:12.788Z,6.72
2018-01-08T17:40:12.722Z,6.67
2018-01-08T17:42:10.686Z,6.67
2018-01-08T17:43:10.674Z,6.68
2018-01-08T17:45:07.106Z,6.57
2018-01-08T17:46:07.110Z,6.61
2018-01-08T17:48:02.506Z,6.64
2018-01-08T17:49:03.024Z,6.54
2018-01-08T17:51:00.396Z,6.62
2018-01-08T17:52:00.407Z,6.60
2018-01-08T17:53:58.449Z,6.52
2018-01-08T17:54:58.440Z,6.42
2018-01-08T17:56:58.317Z,6.46
2018-01-08T17:57:57.405Z,6.51
2018-01-08T17:59:52.912Z,6.44
2018-01-08T18:00:52.931Z,6.33
2018-01-08T18:02:48.393Z,6.43
2018-01-08T18:03:48.358Z,6.36
2018-01-08T18:05:45.282Z,6.36
2018-01-08T18:06:45.325Z,6.26
2018-01-08T18:08:43.306Z,6.33
2018-01-08T18:09:43.256Z,6.25
2018-01-08T18:11:42.186Z,6.26
2018-01-08T18:12:39.156Z,6.28
2018-01-08T18:14:35.113Z,6.28
2018-01-08T18:15:35.605Z,6.25
2018-01-08T18:17:33.151Z,6.24
2018-01-08T18:18:33.126Z,6.21
2018-01-08T18:20:32.072Z,6.15
2018-01-08T18:21:31.189Z,6.20
2018-01-08T18:23:27.616Z,6.17
2018-01-08T18:24:27.121Z,6.13
2018-01-08T18:26:26.049Z,6.10
2018-01-08T18:27:25.160Z,6.10
2018-01-08T18:29:21.113Z,6.05
2018-01-08T18:30:21.119Z,6.05
2018-01-08T18:32:17.579Z,6.02
2018-01-08T18:33:17.048Z,6.00
2018-01-08T18:35:12.998Z,6.05
2018-01-08T18:36:12.958Z,6.06
2018-01-08T18:38:11.876Z,6.09
2018-01-08T18:39:10.990Z,6.02
2018-01-08T18:41:08.952Z,6.09
2018-01-08T18:42:10.434Z,6.06
2018-01-08T18:44:07.399Z,6.09
2018-01-08T18:45:06.877Z,5.99
2018-01-08T18:47:02.776Z,5.98
2018-01-08T18:48:02.784Z,6.02
2018-01-08T18:49:59.230Z,5.91
2018-01-08T18:50:58.734Z,5.85
2018-01-08T18:52:56.646Z,5.88
2018-01-08T18:53:56.630Z,5.84
2018-01-08T18:55:54.576Z,5.78
2018-01-08T18:56:54.558Z,5.78
2018-01-08T18:58:50.542Z,5.75
2018-01-08T18:59:50.512Z,5.73
2018-01-08T19:01:46.505Z,5.73
2018-01-08T19:02:46.437Z,5.75
2018-01-08T19:04:42.917Z,5.62
2018-01-08T19:05:42.891Z,5.60
2018-01-08T19:07:39.800Z,5.64
2018-01-08T19:08:39.790Z,5.66
2018-01-08T19:10:34.212Z,5.73
2018-01-08T19:11:34.202Z,5.69
2018-01-08T19:13:31.671Z,5.64
2018-01-08T19:14:30.136Z,5.63
2018-01-08T19:16:26.046Z,5.62
2018-01-08T19:17:26.072Z,5.62
2018-01-08T19:19:22.511Z,5.63
2018-01-08T19:20:21.970Z,5.64
2018-01-08T19:22:17.937Z,5.59
2018-01-08T19:23:17.911Z,5.59
2018-01-08T19:25:13.816Z,5.64
2018-01-08T19:26:14.360Z,5.62
2018-01-08T19:28:11.749Z,5.59
2018-01-08T19:29:11.747Z,5.55
2018-01-08T19:31:10.211Z,5.59
2018-01-08T19:32:09.765Z,5.57